createdAt,value
2023-05-18T00:02:16.463Z,2.97
2023-05-18T00:04:46.154Z,3.27
2023-05-18T00:07:15.815Z,2.80
2023-05-18T00:09:46.573Z,2.40
2023-05-18T00:12:15.865Z,3.00
2023-05-18T00:14:45.226Z,3.07
2023-05-18T00:17:15.099Z,2.37
2023-05-18T00:19:47.013Z,3.00
2023-05-18T00:22:18.443Z,2.87
2023-05-18T00:24:50.036Z,2.90
2023-05-18T00:27:19.403Z,2.30
2023-05-18T00:29:48.842Z,2.43
2023-05-18T00:32:18.210Z,2.70
2023-05-18T00:34:47.468Z,2.97
2023-05-18T00:37:17.072Z,2.40
2023-05-18T00:39:48.718Z,2.63
2023-05-18T00:42:17.988Z,3.07
2023-05-18T00:44:48.775Z,2.90
2023-05-18T00:47:21.964Z,3.03
2023-05-18T00:49:51.303Z,3.00
2023-05-18T00:52:21.777Z,2.60
2023-05-18T00:54:53.079Z,2.30
2023-05-18T00:57:22.353Z,2.10
2023-05-18T00:59:51.636Z,2.60
2023-05-18T01:02:21.520Z,2.40
2023-05-18T01:04:53.103Z,2.40
2023-05-18T01:07:23.508Z,3.27
2023-05-18T01:09:54.709Z,3.20
2023-05-18T01:12:34.681Z,3.17
2023-05-18T01:15:10.206Z,2.53
2023-05-18T01:17:52.671Z,2.73
2023-05-18T01:20:33.787Z,3.53
2023-05-18T01:23:47.174Z,3.00
2023-05-18T01:26:25.010Z,2.93
2023-05-18T01:28:55.971Z,3.20
2023-05-18T01:31:25.487Z,2.50
2023-05-18T01:33:54.912Z,2.87
2023-05-18T01:36:24.187Z,2.53
2023-05-18T01:38:57.883Z,2.53
2023-05-18T01:41:30.519Z,2.80
2023-05-18T01:44:06.056Z,2.63
2023-05-18T01:46:45.136Z,2.77
2023-05-18T01:49:21.510Z,2.47
2023-05-18T01:51:53.485Z,2.80
2023-05-18T01:54:24.054Z,2.80
2023-05-18T01:56:58.199Z,2.10
2023-05-18T01:59:27.686Z,3.03
2023-05-18T02:02:01.773Z,2.70
2023-05-18T02:04:31.358Z,2.70
2023-05-18T02:07:00.987Z,2.20
2023-05-18T02:09:30.205Z,2.40
2023-05-18T02:12:01.156Z,2.70
2023-05-18T02:14:30.460Z,2.90
2023-05-18T02:16:59.873Z,2.60
2023-05-18T02:19:31.247Z,2.37
2023-05-18T02:22:00.583Z,3.00
2023-05-18T02:24:29.872Z,2.33
2023-05-18T02:27:01.713Z,3.13
2023-05-18T02:29:31.002Z,2.60
2023-05-18T02:32:00.470Z,2.27
2023-05-18T02:34:33.405Z,3.07
2023-05-18T02:37:04.668Z,3.40
2023-05-18T02:39:34.276Z,2.37
2023-05-18T02:42:05.149Z,2.77
2023-05-18T02:44:34.470Z,3.30
2023-05-18T02:47:03.647Z,2.83
2023-05-18T02:49:33.733Z,2.60
2023-05-18T02:52:03.035Z,3.10
2023-05-18T02:54:32.367Z,2.90
2023-05-18T02:57:03.796Z,3.47
2023-05-18T02:59:46.430Z,3.20
2023-05-18T03:02:16.782Z,3.03
2023-05-18T03:04:49.344Z,2.93
2023-05-18T03:07:19.721Z,3.27
2023-05-18T03:09:49.048Z,2.80
2023-05-18T03:12:19.793Z,3.33
2023-05-18T03:14:49.295Z,3.83
2023-05-18T03:17:18.696Z,2.70
2023-05-18T03:19:47.961Z,3.00
2023-05-18T03:22:17.424Z,3.03
2023-05-18T03:24:47.163Z,3.17
2023-05-18T03:27:23.398Z,2.73
2023-05-18T03:29:53.482Z,3.07
2023-05-18T03:32:22.694Z,3.13
2023-05-18T03:34:53.396Z,3.00
2023-05-18T03:37:23.591Z,3.13
2023-05-18T03:39:52.920Z,2.60
2023-05-18T03:42:26.041Z,3.00
2023-05-18T03:44:56.281Z,3.30
2023-05-18T03:47:27.096Z,3.47
2023-05-18T03:49:56.594Z,3.43
2023-05-18T03:52:26.047Z,2.77
2023-05-18T03:54:55.376Z,3.03
2023-05-18T03:57:26.200Z,2.90
2023-05-18T03:59:55.486Z,3.43
2023-05-18T04:02:24.921Z,2.93
2023-05-18T04:04:55.081Z,2.83
2023-05-18T04:07:24.527Z,2.73
2023-05-18T04:09:57.226Z,3.10
2023-05-18T04:12:28.043Z,3.03
2023-05-18T04:14:57.442Z,3.00
2023-05-18T04:17:26.894Z,2.87
2023-05-18T04:19:56.235Z,2.80
2023-05-18T04:22:25.769Z,3.27
2023-05-18T04:24:55.412Z,3.33
2023-05-18T04:27:25.383Z,2.80
2023-05-18T04:29:56.399Z,2.90
2023-05-18T04:32:28.634Z,2.87
2023-05-18T04:35:02.223Z,2.97
2023-05-18T04:37:31.802Z,3.30
2023-05-18T04:40:02.579Z,2.90
2023-05-18T04:42:34.632Z,2.90
2023-05-18T04:45:07.102Z,3.00
2023-05-18T04:47:39.083Z,3.33
2023-05-18T04:50:09.427Z,2.77
2023-05-18T04:52:38.947Z,3.70
2023-05-18T04:55:11.183Z,3.23
2023-05-18T04:57:40.618Z,2.80
2023-05-18T05:00:13.362Z,3.30
2023-05-18T05:02:43.068Z,3.77
2023-05-18T05:05:12.696Z,3.13
2023-05-18T05:07:42.372Z,2.80
2023-05-18T05:10:12.529Z,3.20
2023-05-18T05:12:43.952Z,3.50
2023-05-18T05:15:15.498Z,3.00
2023-05-18T05:17:45.061Z,3.20
2023-05-18T05:20:14.751Z,3.17
2023-05-18T05:22:44.588Z,2.60
2023-05-18T05:25:16.470Z,2.67
2023-05-18T05:27:45.977Z,2.80
2023-05-18T05:30:17.464Z,2.20
2023-05-18T05:32:46.967Z,3.30
2023-05-18T05:35:16.361Z,3.10
2023-05-18T05:37:47.090Z,2.97
2023-05-18T05:40:17.432Z,2.53
2023-05-18T05:42:48.710Z,2.47
2023-05-18T05:45:19.629Z,2.63
2023-05-18T05:47:52.449Z,2.60
2023-05-18T05:50:23.109Z,2.40
2023-05-18T05:52:54.293Z,2.43
2023-05-18T05:55:25.776Z,2.60
2023-05-18T05:57:55.556Z,2.60
2023-05-18T06:00:27.909Z,2.33
2023-05-18T06:03:02.396Z,2.33
2023-05-18T06:05:44.123Z,2.20
2023-05-18T06:08:16.089Z,2.53
2023-05-18T06:10:45.733Z,2.30
2023-05-18T06:13:15.946Z,2.07
2023-05-18T06:15:52.781Z,1.93
2023-05-18T06:18:22.764Z,2.10
2023-05-18T06:20:53.152Z,2.50
2023-05-18T06:23:24.206Z,2.07
2023-05-18T06:25:56.202Z,2.60
2023-05-18T06:28:44.463Z,2.00
2023-05-18T06:31:35.978Z,2.30
2023-05-18T06:34:14.813Z,2.13
2023-05-18T06:36:44.436Z,2.20
2023-05-18T06:39:13.712Z,2.50
2023-05-18T06:41:45.310Z,2.70
2023-05-18T06:44:23.457Z,2.10
2023-05-18T06:47:09.457Z,2.03
2023-05-18T06:49:39.248Z,2.40
2023-05-18T06:52:10.326Z,2.20
2023-05-18T06:54:40.123Z,2.10
2023-05-18T06:57:09.573Z,1.67
2023-05-18T06:59:39.196Z,1.83
2023-05-18T07:02:10.730Z,2.30
2023-05-18T07:04:40.642Z,1.97
2023-05-18T07:07:10.179Z,1.63
2023-05-18T07:09:40.230Z,2.00
2023-05-18T07:12:10.203Z,2.50
2023-05-18T07:14:39.705Z,1.90
2023-05-18T07:17:12.051Z,1.80
2023-05-18T07:19:41.418Z,1.90
2023-05-18T07:22:11.909Z,2.33
2023-05-18T07:24:41.555Z,2.40
2023-05-18T07:27:11.419Z,2.00
2023-05-18T07:29:40.706Z,1.77
2023-05-18T07:32:11.501Z,1.90
2023-05-18T07:34:42.860Z,1.80
2023-05-18T07:37:12.258Z,1.90
2023-05-18T07:39:44.800Z,2.27
2023-05-18T07:42:27.491Z,1.80
2023-05-18T07:45:01.868Z,1.77
2023-05-18T07:47:36.486Z,2.30
2023-05-18T07:50:14.139Z,2.30
2023-05-18T07:52:43.634Z,2.00
2023-05-18T07:55:14.324Z,1.80
2023-05-18T07:57:43.919Z,2.00
2023-05-18T08:00:14.696Z,1.60
2023-05-18T08:02:46.702Z,2.00
2023-05-18T08:05:16.261Z,1.57
2023-05-18T08:07:46.192Z,1.80
2023-05-18T08:10:16.387Z,1.67
2023-05-18T08:13:33.872Z,1.70
2023-05-18T08:18:41.158Z,1.90
2023-05-18T08:21:11.180Z,1.80
2023-05-18T08:23:41.070Z,1.70
2023-05-18T08:26:14.146Z,1.50
2023-05-18T08:28:45.490Z,1.90
2023-05-18T08:31:15.369Z,1.97
2023-05-18T08:33:46.285Z,1.67
2023-05-18T08:36:15.552Z,1.73
2023-05-18T08:38:44.815Z,1.93
2023-05-18T08:41:21.532Z,1.50
2023-05-18T08:44:01.506Z,1.80
2023-05-18T08:46:59.183Z,1.90
2023-05-18T08:49:36.862Z,1.47
2023-05-18T08:52:09.798Z,1.67
2023-05-18T08:54:44.148Z,1.70
2023-05-18T08:57:24.903Z,1.43
2023-05-18T08:59:55.862Z,1.97
2023-05-18T09:02:25.920Z,1.70
2023-05-18T09:04:58.699Z,1.30
2023-05-18T09:07:29.612Z,1.80
2023-05-18T09:09:59.788Z,1.80
2023-05-18T09:12:30.526Z,1.70
2023-05-18T09:15:01.422Z,1.50
2023-05-18T09:17:31.774Z,1.83
2023-05-18T09:20:02.656Z,1.70
2023-05-18T09:22:32.581Z,1.70
2023-05-18T09:25:02.318Z,1.83
2023-05-18T09:27:36.155Z,1.43
2023-05-18T09:30:11.732Z,4.83
2023-05-18T09:32:43.310Z,2.63
2023-05-18T09:35:18.312Z,1.67
2023-05-18T09:37:56.296Z,1.40
2023-05-18T09:40:37.080Z,2.07
2023-05-18T09:43:11.811Z,1.83
2023-05-18T09:45:47.218Z,1.40
2023-05-18T09:48:23.551Z,1.63
2023-05-18T09:51:01.495Z,1.23
2023-05-18T09:53:30.864Z,1.67
2023-05-18T09:56:06.190Z,1.80
2023-05-18T09:58:36.284Z,1.70
2023-05-18T10:01:06.062Z,1.50
2023-05-18T10:03:38.115Z,1.30
2023-05-18T10:06:10.658Z,1.57
2023-05-18T10:08:40.505Z,1.97
2023-05-18T10:11:10.707Z,1.57
2023-05-18T10:13:42.866Z,1.50
2023-05-18T10:16:12.492Z,1.60
2023-05-18T10:18:43.273Z,1.80
2023-05-18T10:21:15.873Z,1.50
2023-05-18T10:23:49.833Z,1.60
2023-05-18T10:26:21.767Z,1.60
2023-05-18T10:28:58.256Z,1.40
2023-05-18T10:31:29.583Z,1.20
2023-05-18T10:34:00.838Z,1.37
2023-05-18T10:36:34.676Z,1.50
2023-05-18T10:39:05.350Z,1.40
2023-05-18T10:41:37.161Z,1.17
2023-05-18T10:44:08.035Z,1.43
2023-05-18T10:46:38.769Z,1.40
2023-05-18T10:49:13.605Z,1.40
2023-05-18T10:51:47.595Z,1.50
2023-05-18T10:54:17.538Z,1.80
2023-05-18T10:56:50.699Z,1.47
2023-05-18T10:59:21.086Z,1.50
2023-05-18T11:01:53.005Z,1.50
2023-05-18T11:04:30.048Z,1.53
2023-05-18T11:07:08.972Z,1.33
2023-05-18T11:09:47.670Z,1.40
2023-05-18T11:12:26.551Z,1.80
2023-05-18T11:15:05.245Z,1.37
2023-05-18T11:17:45.928Z,1.60
2023-05-18T11:20:30.967Z,1.33
2023-05-18T11:23:11.214Z,1.40
2023-05-18T11:25:50.730Z,1.30
2023-05-18T11:28:26.850Z,1.57
2023-05-18T11:31:02.760Z,1.50
2023-05-18T11:33:41.738Z,1.50
2023-05-18T11:36:15.670Z,1.40
2023-05-18T11:39:03.067Z,1.33
2023-05-18T11:41:44.160Z,1.60
2023-05-18T11:44:28.782Z,2.00
2023-05-18T11:47:16.868Z,1.80
2023-05-18T11:49:54.607Z,1.43
2023-05-18T11:52:29.127Z,1.23
2023-05-18T11:55:15.287Z,1.57
2023-05-18T11:57:54.117Z,1.60
2023-05-18T12:00:32.294Z,1.50
2023-05-18T12:03:12.124Z,1.20
2023-05-18T12:05:45.565Z,1.60
2023-05-18T12:08:24.654Z,1.20
2023-05-18T12:10:59.151Z,1.20
2023-05-18T12:13:32.504Z,1.30
2023-05-18T12:16:08.296Z,1.57
2023-05-18T12:18:41.146Z,1.60
2023-05-18T12:21:12.684Z,1.20
2023-05-18T12:23:43.700Z,1.30
2023-05-18T12:26:20.716Z,1.53
2023-05-18T12:28:55.171Z,1.70
2023-05-18T12:31:27.097Z,1.40
2023-05-18T12:34:01.216Z,1.30
2023-05-18T12:36:45.632Z,1.90
2023-05-18T12:39:23.073Z,1.10
2023-05-18T12:41:57.311Z,1.53
2023-05-18T12:44:31.716Z,1.60
2023-05-18T12:47:01.427Z,1.50
2023-05-18T12:49:31.060Z,1.67
2023-05-18T12:52:09.444Z,1.70
2023-05-18T12:54:39.411Z,1.83
2023-05-18T12:57:10.519Z,1.40
2023-05-18T12:59:50.544Z,1.60
2023-05-18T13:02:34.802Z,1.40
2023-05-18T13:05:06.210Z,1.60
2023-05-18T13:07:37.910Z,1.73
2023-05-18T13:10:08.491Z,1.20
2023-05-18T13:12:41.639Z,1.50
2023-05-18T13:15:12.533Z,1.53
2023-05-18T13:17:49.718Z,1.27
2023-05-18T13:20:19.404Z,1.43
2023-05-18T13:22:51.236Z,1.30
2023-05-18T13:25:21.163Z,1.33
2023-05-18T13:27:55.200Z,1.33
2023-05-18T13:30:25.097Z,1.17
2023-05-18T13:32:54.932Z,1.23
2023-05-18T13:35:24.237Z,1.30
2023-05-18T13:37:53.849Z,1.50
2023-05-18T13:40:25.899Z,1.40
2023-05-18T13:42:56.684Z,2.43
2023-05-18T13:45:26.231Z,1.30
2023-05-18T13:47:55.579Z,1.40
2023-05-18T13:50:26.534Z,1.80
2023-05-18T13:52:56.627Z,1.17
2023-05-18T13:55:26.033Z,1.20
2023-05-18T13:57:56.842Z,1.33
2023-05-18T14:00:26.496Z,1.40
2023-05-18T14:02:56.980Z,1.30
2023-05-18T14:05:26.968Z,1.57
2023-05-18T14:07:57.085Z,1.70
2023-05-18T14:10:26.320Z,1.30
2023-05-18T14:12:58.156Z,1.50
2023-05-18T14:15:28.966Z,1.30
2023-05-18T14:17:58.754Z,1.40
2023-05-18T14:20:29.761Z,1.40
2023-05-18T14:23:00.348Z,1.40
2023-05-18T14:25:30.318Z,1.37
2023-05-18T14:28:18.371Z,1.70
2023-05-18T14:30:48.282Z,1.40
2023-05-18T14:33:18.436Z,1.60
2023-05-18T14:35:48.574Z,1.40
2023-05-18T14:38:20.346Z,1.37
2023-05-18T14:40:50.367Z,1.30
2023-05-18T14:43:22.644Z,1.20
2023-05-18T14:46:06.887Z,1.53
2023-05-18T14:48:38.215Z,1.17
2023-05-18T14:51:08.147Z,1.60
2023-05-18T14:53:38.356Z,1.33
2023-05-18T14:56:09.880Z,1.30
2023-05-18T14:58:41.457Z,1.87
2023-05-18T15:01:13.394Z,1.57
2023-05-18T15:03:45.107Z,1.77
2023-05-18T15:06:15.278Z,1.37
2023-05-18T15:08:45.650Z,1.40
2023-05-18T15:11:17.111Z,1.63
2023-05-18T15:13:49.644Z,2.67
2023-05-18T15:16:20.962Z,1.30
2023-05-18T15:18:50.764Z,1.43
2023-05-18T15:21:20.599Z,1.70
2023-05-18T15:23:50.806Z,1.60
2023-05-18T15:26:23.958Z,1.47
2023-05-18T15:28:55.270Z,1.30
2023-05-18T15:31:28.341Z,1.37
2023-05-18T15:33:58.614Z,1.20
2023-05-18T15:36:31.184Z,1.43
2023-05-18T15:39:05.018Z,1.57
2023-05-18T15:41:35.420Z,1.70
2023-05-18T15:44:09.917Z,1.70
2023-05-18T15:46:40.142Z,1.50
2023-05-18T15:49:14.737Z,1.60
2023-05-18T15:51:44.843Z,1.23
2023-05-18T15:54:14.626Z,1.67
2023-05-18T15:56:44.442Z,1.40
2023-05-18T15:59:15.226Z,1.63
2023-05-18T16:01:46.260Z,1.50
2023-05-18T16:04:16.960Z,2.27
2023-05-18T16:06:46.840Z,1.30
2023-05-18T16:09:20.498Z,1.47
2023-05-18T16:11:55.687Z,1.60
2023-05-18T16:14:30.471Z,1.40
2023-05-18T16:17:02.362Z,1.30
2023-05-18T16:19:33.627Z,1.80
2023-05-18T16:22:05.380Z,1.67
2023-05-18T16:24:38.180Z,1.70
2023-05-18T16:27:08.648Z,1.70
2023-05-18T16:29:42.213Z,1.60
2023-05-18T16:32:14.879Z,1.80
2023-05-18T16:34:45.698Z,1.90
2023-05-18T16:37:16.409Z,1.50
2023-05-18T16:39:52.578Z,1.70
2023-05-18T16:42:27.942Z,1.70
2023-05-18T16:44:59.570Z,1.70
2023-05-18T16:47:32.891Z,1.73
2023-05-18T16:50:07.397Z,2.07
2023-05-18T16:52:37.494Z,1.60
2023-05-18T16:55:08.787Z,1.57
2023-05-18T16:57:40.084Z,2.20
2023-05-18T17:00:12.775Z,2.40
2023-05-18T17:02:43.261Z,1.83
2023-05-18T17:05:13.177Z,1.83
2023-05-18T17:07:43.030Z,1.87
2023-05-18T17:10:13.428Z,1.57
2023-05-18T17:12:43.406Z,1.77
2023-05-18T17:15:14.757Z,2.00
2023-05-18T17:17:45.431Z,1.73
2023-05-18T17:20:15.649Z,1.80
2023-05-18T17:22:45.723Z,1.80
2023-05-18T17:25:15.570Z,2.00
2023-05-18T17:27:46.389Z,1.97
2023-05-18T17:30:21.015Z,2.00
2023-05-18T17:32:56.253Z,2.00
2023-05-18T17:35:28.635Z,1.70
2023-05-18T17:38:05.699Z,2.23
2023-05-18T17:40:35.496Z,2.10
2023-05-18T17:43:11.860Z,2.33
2023-05-18T17:45:47.538Z,1.90
2023-05-18T17:48:17.760Z,2.10
2023-05-18T17:50:48.231Z,2.10
2023-05-18T17:53:21.253Z,2.70
2023-05-18T17:55:52.858Z,2.27
2023-05-18T17:58:29.715Z,2.13
2023-05-18T18:01:01.945Z,2.17
2023-05-18T18:03:32.931Z,2.30
2023-05-18T18:06:03.293Z,2.30
2023-05-18T18:08:37.012Z,2.40
2023-05-18T18:11:09.238Z,1.93
2023-05-18T18:13:40.039Z,2.73
2023-05-18T18:16:14.464Z,2.23
2023-05-18T18:18:45.016Z,2.73
2023-05-18T18:21:18.008Z,2.60
2023-05-18T18:23:50.669Z,2.60
2023-05-18T18:26:24.953Z,2.20
2023-05-18T18:28:55.375Z,2.33
2023-05-18T18:31:27.587Z,2.37
2023-05-18T18:33:58.603Z,2.60
2023-05-18T18:36:28.625Z,2.53
2023-05-18T18:39:00.678Z,2.20
2023-05-18T18:41:30.694Z,2.47
2023-05-18T18:44:03.468Z,2.27
2023-05-18T18:46:38.809Z,2.77
2023-05-18T18:49:08.972Z,3.17
2023-05-18T18:51:42.964Z,2.67
2023-05-18T18:54:16.454Z,3.10
2023-05-18T18:56:48.983Z,2.90
2023-05-18T18:59:23.666Z,2.50
2023-05-18T19:01:57.762Z,2.63
2023-05-18T19:04:31.430Z,2.93
2023-05-18T19:07:05.387Z,3.00
2023-05-18T19:09:36.628Z,3.07
2023-05-18T19:12:07.678Z,3.60
2023-05-18T19:14:41.864Z,3.03
2023-05-18T19:17:15.518Z,3.60
2023-05-18T19:19:47.164Z,4.07
2023-05-18T19:22:18.621Z,4.00
2023-05-18T19:24:49.312Z,3.33
2023-05-18T19:27:19.849Z,2.93
2023-05-18T19:29:50.401Z,3.40
2023-05-18T19:32:22.177Z,4.20
2023-05-18T19:34:52.229Z,3.90
2023-05-18T19:37:22.814Z,3.40
2023-05-18T19:39:53.526Z,3.00
2023-05-18T19:42:23.995Z,3.30
2023-05-18T19:44:54.421Z,3.50
2023-05-18T19:47:26.461Z,3.60
2023-05-18T19:49:56.855Z,3.57
2023-05-18T19:52:27.001Z,3.50
2023-05-18T19:54:57.776Z,3.30
2023-05-18T19:57:27.727Z,3.30
2023-05-18T19:59:58.158Z,3.30
2023-05-18T20:02:29.800Z,3.67
2023-05-18T20:05:00.953Z,3.50
2023-05-18T20:07:32.220Z,3.47
2023-05-18T20:10:02.333Z,3.60
2023-05-18T20:12:33.400Z,3.50
2023-05-18T20:15:03.356Z,3.63
2023-05-18T20:17:35.015Z,3.70
2023-05-18T20:20:05.384Z,3.47
2023-05-18T20:22:36.068Z,3.37
2023-05-18T20:25:08.167Z,3.17
2023-05-18T20:27:38.758Z,3.20
2023-05-18T20:30:10.432Z,2.90
2023-05-18T20:32:41.859Z,3.10
2023-05-18T20:35:13.200Z,3.10
2023-05-18T20:37:44.364Z,2.93
2023-05-18T20:40:14.733Z,3.40
2023-05-18T20:42:44.701Z,3.20
2023-05-18T20:45:16.514Z,3.00
2023-05-18T20:47:50.991Z,2.97
2023-05-18T20:50:24.476Z,3.10
2023-05-18T20:52:55.536Z,3.03
2023-05-18T20:55:27.986Z,3.07
2023-05-18T20:57:58.132Z,2.90
2023-05-18T21:00:27.990Z,2.80
2023-05-18T21:02:58.813Z,2.53
2023-05-18T21:05:29.033Z,2.67
2023-05-18T21:07:58.543Z,2.60
2023-05-18T21:10:28.023Z,2.40
2023-05-18T21:12:57.294Z,2.60
2023-05-18T21:15:26.668Z,2.87
2023-05-18T21:17:58.149Z,2.40
2023-05-18T21:20:27.925Z,2.43
2023-05-18T21:22:57.251Z,2.90
2023-05-18T21:25:26.821Z,2.70
2023-05-18T21:27:59.853Z,2.80
2023-05-18T21:30:32.915Z,2.43
2023-05-18T21:33:04.757Z,2.63
2023-05-18T21:35:34.223Z,2.70
2023-05-18T21:38:03.485Z,4.70
2023-05-18T21:40:33.138Z,3.07
2023-05-18T21:43:02.842Z,2.53
2023-05-18T21:45:32.449Z,3.20
2023-05-18T21:48:03.191Z,2.50
2023-05-18T21:50:35.358Z,2.70
2023-05-18T21:53:05.013Z,2.70
2023-05-18T21:55:34.472Z,2.77
2023-05-18T21:58:03.793Z,3.30
2023-05-18T22:00:35.078Z,2.80
2023-05-18T22:03:06.276Z,3.30
2023-05-18T22:05:35.626Z,2.97
2023-05-18T22:08:05.098Z,3.10
2023-05-18T22:10:34.680Z,3.47
2023-05-18T22:13:04.200Z,3.07
2023-05-18T22:15:33.967Z,3.37
2023-05-18T22:18:04.829Z,3.60
2023-05-18T22:20:34.975Z,3.40
2023-05-18T22:23:04.783Z,3.27
2023-05-18T22:25:34.199Z,3.43
2023-05-18T22:28:03.629Z,3.10
2023-05-18T22:30:34.040Z,3.17
2023-05-18T22:33:05.141Z,2.80
2023-05-18T22:35:36.970Z,3.03
2023-05-18T22:38:06.414Z,3.00
2023-05-18T22:40:35.721Z,3.03
2023-05-18T22:43:04.960Z,3.00
2023-05-18T22:45:34.517Z,3.50
2023-05-18T22:48:05.649Z,3.13
2023-05-18T22:50:35.407Z,2.83
2023-05-18T22:53:05.254Z,4.60
2023-05-18T22:55:34.610Z,3.13
2023-05-18T22:58:03.961Z,2.87
2023-05-18T23:00:33.506Z,3.23
2023-05-18T23:03:03.041Z,2.90
2023-05-18T23:05:34.113Z,3.30
2023-05-18T23:08:03.547Z,3.40
2023-05-18T23:10:33.293Z,2.90
2023-05-18T23:13:03.408Z,3.30
2023-05-18T23:15:33.482Z,2.97
2023-05-18T23:18:04.519Z,3.10
2023-05-18T23:20:35.726Z,3.70
2023-05-18T23:23:04.920Z,3.33
2023-05-18T23:25:34.603Z,3.30
2023-05-18T23:28:03.828Z,3.50
2023-05-18T23:30:33.560Z,3.20
2023-05-18T23:33:03.564Z,2.60
2023-05-18T23:35:34.910Z,3.40
2023-05-18T23:38:06.681Z,3.07
2023-05-18T23:40:36.814Z,2.90
2023-05-18T23:43:06.728Z,3.87
2023-05-18T23:45:36.748Z,10.73
2023-05-18T23:48:06.801Z,2.80
2023-05-18T23:50:38.243Z,2.57
2023-05-18T23:53:08.651Z,2.70
2023-05-18T23:55:41.565Z,2.60
2023-05-18T23:58:11.693Z,2.20
